Time;durP1;ratioP1;P1;durP2;ratioP2;P2;SDS_P1;SDS_P2;PMS_P1;PMS_P2;Temp;Humidity;BMP_temperature;BMP_pressure;BME280_temperature;BME280_humidity;BME280_pressure;Samples;Min_cycle;Max_cycle;Signal;HPM_P1;HPM_P2
2022/02/14 00:01:06;;;;;;;15.65;8.45;;;;;;;;;;4987742;28;20062;-65
2022/02/14 00:03:37;;;;;;;14.60;8.73;;;;;;;;;;4956261;28;20063;-65
2022/02/14 00:06:07;;;;;;;15.02;7.65;;;;;;;;;;4987847;28;20485;-64
2022/02/14 00:08:38;;;;;;;14.57;9.18;;;;;;;;;;4971924;28;20050;-64
2022/02/14 00:11:09;;;;;;;14.15;8.68;;;;;;;;;;4988170;28;20129;-64
2022/02/14 00:13:39;;;;;;;18.25;9.73;;;;;;;;;;4987480;28;20062;-65
2022/02/14 00:16:10;;;;;;;21.83;10.98;;;;;;;;;;4916416;29;20062;-65
2022/02/14 00:18:40;;;;;;;14.13;8.57;;;;;;;;;;4933531;29;20059;-65
2022/02/14 00:21:10;;;;;;;14.32;8.25;;;;;;;;;;4933336;29;20075;-64
2022/02/14 00:23:41;;;;;;;16.38;8.30;;;;;;;;;;4949047;29;20075;-64
2022/02/14 00:26:12;;;;;;;13.70;9.25;;;;;;;;;;4950370;29;20055;-64
2022/02/14 00:28:42;;;;;;;14.45;8.23;;;;;;;;;;4918860;29;20055;-65
2022/02/14 00:31:13;;;;;;;14.10;7.60;;;;;;;;;;4971704;28;20059;-64
2022/02/14 00:33:43;;;;;;;13.30;7.93;;;;;;;;;;4981773;28;20490;-65
2022/02/14 00:36:13;;;;;;;12.32;7.85;;;;;;;;;;4983223;28;20163;-65
2022/02/14 00:38:44;;;;;;;14.25;8.50;;;;;;;;;;4924083;28;20050;-65
2022/02/14 00:41:14;;;;;;;15.50;8.30;;;;;;;;;;4908461;28;20069;-65
2022/02/14 00:43:45;;;;;;;13.52;7.90;;;;;;;;;;4955077;28;20061;-65
2022/02/14 00:46:15;;;;;;;17.00;8.02;;;;;;;;;;4956071;28;20054;-65
2022/02/14 00:48:45;;;;;;;14.70;8.32;;;;;;;;;;4971395;28;20057;-65
2022/02/14 00:51:16;;;;;;;14.93;8.52;;;;;;;;;;4971267;28;20063;-65
2022/02/14 00:53:47;;;;;;;13.57;8.45;;;;;;;;;;4953041;28;20086;-64
2022/02/14 00:56:17;;;;;;;17.60;9.00;;;;;;;;;;4933248;29;20059;-65
2022/02/14 00:58:47;;;;;;;16.05;8.77;;;;;;;;;;4913283;29;20063;-65
2022/02/14 01:01:19;;;;;;;18.48;8.80;;;;;;;;;;4929766;29;20071;-65
2022/02/14 01:03:50;;;;;;;15.88;8.52;;;;;;;;;;4936011;28;20055;-65
2022/02/14 01:06:20;;;;;;;16.38;8.73;;;;;;;;;;4913212;29;20048;-64
2022/02/14 01:08:50;;;;;;;14.90;8.30;;;;;;;;;;4932155;29;20047;-65
2022/02/14 01:11:22;;;;;;;14.77;8.43;;;;;;;;;;4951952;29;20451;-65
2022/02/14 01:13:52;;;;;;;13.82;8.45;;;;;;;;;;4904833;29;20565;-65
2022/02/14 01:16:22;;;;;;;13.90;7.85;;;;;;;;;;4952056;29;20138;-65
2022/02/14 01:18:53;;;;;;;14.48;7.63;;;;;;;;;;4951723;29;20389;-64
2022/02/14 01:21:24;;;;;;;16.17;8.38;;;;;;;;;;4951374;29;20062;-64
2022/02/14 01:23:54;;;;;;;17.60;8.63;;;;;;;;;;4920016;29;20082;-65
2022/02/14 01:26:24;;;;;;;14.52;8.20;;;;;;;;;;4951332;28;20051;-64
2022/02/14 01:28:56;;;;;;;17.10;8.70;;;;;;;;;;4951049;29;20070;-64
2022/02/14 01:31:27;;;;;;;17.70;8.65;;;;;;;;;;4912946;29;20063;-65
2022/02/14 01:33:58;;;;;;;14.50;8.27;;;;;;;;;;4882583;29;20055;-64
2022/02/14 01:36:27;;;;;;;14.25;8.15;;;;;;;;;;4922499;29;20074;-65
2022/02/14 01:38:58;;;;;;;14.73;8.38;;;;;;;;;;4916214;29;20128;-65
2022/02/14 01:41:29;;;;;;;13.77;8.65;;;;;;;;;;4932467;29;20079;-65
2022/02/14 01:44:00;;;;;;;13.73;7.75;;;;;;;;;;4932088;28;20051;-64
2022/02/14 01:46:31;;;;;;;13.55;8.55;;;;;;;;;;4931782;28;20051;-65
2022/02/14 01:49:02;;;;;;;17.90;8.48;;;;;;;;;;4916237;29;20738;-65
2022/02/14 01:51:35;;;;;;;14.25;8.20;;;;;;;;;;4912420;29;20052;-65
2022/02/14 01:54:05;;;;;;;14.45;8.40;;;;;;;;;;4913237;29;20052;-65
2022/02/14 01:56:36;;;;;;;16.27;8.90;;;;;;;;;;4881867;29;20067;-64
2022/02/14 01:59:07;;;;;;;18.23;7.82;;;;;;;;;;4912741;29;20060;-65
2022/02/14 02:01:37;;;;;;;16.52;8.98;;;;;;;;;;4916105;29;20075;-65
2022/02/14 02:04:07;;;;;;;17.05;8.73;;;;;;;;;;4950959;28;20051;-65
2022/02/14 02:06:38;;;;;;;19.77;8.57;;;;;;;;;;4930686;29;20056;-65
2022/02/14 02:09:08;;;;;;;15.90;8.45;;;;;;;;;;4931818;29;20055;-65
2022/02/14 02:14:27;;;;;;;17.40;8.90;;;;;;;;;;4931791;29;20064;-65
2022/02/14 02:16:59;;;;;;;16.60;9.52;;;;;;;;;;4931478;29;20056;-65
2022/02/14 02:19:29;;;;;;;15.95;8.20;;;;;;;;;;4931179;29;20066;-65
2022/02/14 02:21:59;;;;;;;16.35;8.98;;;;;;;;;;4931517;29;20103;-64
2022/02/14 02:24:32;;;;;;;15.27;8.68;;;;;;;;;;4955955;28;20062;-65
2022/02/14 02:27:05;;;;;;;16.40;8.77;;;;;;;;;;4954331;28;20047;-65
2022/02/14 02:29:38;;;;;;;19.85;8.88;;;;;;;;;;4963392;28;20106;-64
2022/02/14 02:32:11;;;;;;;15.10;8.73;;;;;;;;;;4950140;29;20463;-65
2022/02/14 02:34:43;;;;;;;17.20;8.98;;;;;;;;;;4949883;29;20044;-65
2022/02/14 02:37:16;;;;;;;16.85;8.80;;;;;;;;;;4899192;29;20066;-65
2022/02/14 02:39:47;;;;;;;18.58;8.73;;;;;;;;;;4930533;29;20067;-65
2022/02/14 02:42:19;;;;;;;17.77;9.23;;;;;;;;;;4930700;29;20062;-65
2022/02/14 02:44:51;;;;;;;14.48;8.68;;;;;;;;;;4903149;29;20055;-65
2022/02/14 02:47:23;;;;;;;;;;;;;;;;;;4950701;29;20062;-65
2022/02/14 02:49:54;;;;;;;19.17;8.52;;;;;;;;;;4949680;29;20398;-65
2022/02/14 02:52:25;;;;;;;19.92;9.38;;;;;;;;;;4950357;29;20055;-65
2022/02/14 02:54:56;;;;;;;17.27;9.05;;;;;;;;;;4950286;29;20066;-65
2022/02/14 02:57:27;;;;;;;19.10;8.57;;;;;;;;;;4949604;29;20063;-65
2022/02/14 02:59:57;;;;;;;17.65;9.00;;;;;;;;;;4902738;29;20499;-65
2022/02/14 03:02:28;;;;;;;19.42;9.35;;;;;;;;;;4949903;29;20071;-65
2022/02/14 03:04:57;;;;;;;17.45;9.13;;;;;;;;;;4949515;29;20066;-65
2022/02/14 03:07:28;;;;;;;20.63;9.77;;;;;;;;;;4949971;29;20051;-64
2022/02/14 03:10:00;;;;;;;20.75;10.50;;;;;;;;;;4921176;28;20047;-65
2022/02/14 03:12:30;;;;;;;19.05;9.45;;;;;;;;;;4936753;28;20059;-64
2022/02/14 03:15:00;;;;;;;18.30;9.63;;;;;;;;;;4958980;28;20497;-65
2022/02/14 03:17:30;;;;;;;16.85;9.77;;;;;;;;;;5010407;28;20049;-64
2022/02/14 03:20:01;;;;;;;18.10;10.13;;;;;;;;;;4949220;28;20070;-65
2022/02/14 03:22:31;;;;;;;18.00;10.02;;;;;;;;;;4949697;28;20396;-65
2022/02/14 03:25:01;;;;;;;16.10;9.32;;;;;;;;;;4949734;28;20107;-65
2022/02/14 03:27:31;;;;;;;15.88;9.55;;;;;;;;;;4948937;28;20577;-65
2022/02/14 03:30:02;;;;;;;17.10;9.25;;;;;;;;;;4968380;28;20062;-65
2022/02/14 03:32:32;;;;;;;16.88;9.45;;;;;;;;;;4968878;28;20063;-65
2022/02/14 03:35:03;;;;;;;16.70;9.48;;;;;;;;;;4949225;28;20070;-65
2022/02/14 03:37:33;;;;;;;18.35;10.50;;;;;;;;;;4846146;29;20827;-65
2022/02/14 03:40:04;;;;;;;17.25;9.48;;;;;;;;;;4873355;29;20053;-65
2022/02/14 03:42:35;;;;;;;18.67;9.70;;;;;;;;;;4873399;29;20072;-64
2022/02/14 03:45:06;;;;;;;16.05;9.48;;;;;;;;;;4873686;29;20060;-65
2022/02/14 03:47:37;;;;;;;18.90;10.55;;;;;;;;;;4858703;29;20655;-65
2022/02/14 03:50:07;;;;;;;14.52;9.02;;;;;;;;;;4875508;29;20061;-65
2022/02/14 03:52:38;;;;;;;18.88;9.80;;;;;;;;;;4847273;29;20060;-65
2022/02/14 03:55:08;;;;;;;17.65;9.80;;;;;;;;;;4877380;29;20065;-65
2022/02/14 03:57:39;;;;;;;17.52;8.98;;;;;;;;;;4886744;29;20057;-65
2022/02/14 04:00:12;;;;;;;20.10;9.93;;;;;;;;;;4865253;29;20056;-65
2022/02/14 04:02:43;;;;;;;16.33;10.25;;;;;;;;;;4896235;29;20068;-65
2022/02/14 04:05:16;;;;;;;15.32;8.77;;;;;;;;;;4895781;29;20078;-65
2022/02/14 04:07:47;;;;;;;17.42;9.73;;;;;;;;;;4875086;29;20770;-65
2022/02/14 04:10:18;;;;;;;19.15;9.98;;;;;;;;;;4896035;29;20512;-65
2022/02/14 04:12:48;;;;;;;21.10;10.40;;;;;;;;;;4905984;29;20079;-65
2022/02/14 04:15:19;;;;;;;20.83;10.70;;;;;;;;;;4925452;29;20063;-65
2022/02/14 04:17:49;;;;;;;21.38;11.18;;;;;;;;;;4924846;29;20051;-65
2022/02/14 04:20:20;;;;;;;20.75;10.65;;;;;;;;;;4934065;29;20071;-65
2022/02/14 04:22:51;;;;;;;19.13;10.88;;;;;;;;;;4902216;29;20063;-65
2022/02/14 04:25:21;;;;;;;22.35;10.75;;;;;;;;;;4933321;29;20063;-65
2022/02/14 04:27:52;;;;;;;19.45;10.52;;;;;;;;;;4946397;29;20063;-65
2022/02/14 04:30:24;;;;;;;15.82;9.07;;;;;;;;;;4929253;29;20067;-65
2022/02/14 04:32:56;;;;;;;23.80;10.07;;;;;;;;;;4928890;29;20063;-65
2022/02/14 04:35:29;;;;;;;18.88;10.55;;;;;;;;;;4929119;29;20067;-65
2022/02/14 04:38:00;;;;;;;18.15;10.25;;;;;;;;;;4883974;29;20055;-64
2022/02/14 04:40:34;;;;;;;19.83;10.52;;;;;;;;;;4933210;29;20181;-64
2022/02/14 04:43:06;;;;;;;16.88;10.00;;;;;;;;;;4933188;29;20066;-65
2022/02/14 04:45:36;;;;;;;19.30;10.18;;;;;;;;;;4952454;29;20526;-64
2022/02/14 04:48:07;;;;;;;20.17;10.50;;;;;;;;;;4931105;28;20058;-65
2022/02/14 04:50:37;;;;;;;19.10;9.45;;;;;;;;;;4952161;28;20058;-64
2022/02/14 04:53:07;;;;;;;19.52;10.52;;;;;;;;;;4952085;28;20058;-65
2022/02/14 04:55:39;;;;;;;19.73;10.35;;;;;;;;;;4962554;28;20063;-64
2022/02/14 04:58:09;;;;;;;21.25;11.05;;;;;;;;;;4971730;28;20157;-64
2022/02/14 05:00:40;;;;;;;22.08;10.45;;;;;;;;;;4970793;28;20055;-64
2022/02/14 05:03:11;;;;;;;19.20;10.70;;;;;;;;;;4971205;28;20070;-65
2022/02/14 05:05:44;;;;;;;19.83;10.65;;;;;;;;;;4932607;29;20544;-64
2022/02/14 05:08:14;;;;;;;19.17;11.07;;;;;;;;;;4932924;29;20435;-65
2022/02/14 05:10:44;;;;;;;22.58;11.68;;;;;;;;;;4885103;29;20063;-65
2022/02/14 05:13:14;;;;;;;25.33;11.68;;;;;;;;;;4932953;29;20402;-65
2022/02/14 05:15:45;;;;;;;20.02;11.20;;;;;;;;;;4934244;29;20055;-65
2022/02/14 05:18:16;;;;;;;22.63;10.32;;;;;;;;;;4903694;29;20066;-65
2022/02/14 05:20:46;;;;;;;21.85;11.40;;;;;;;;;;4932290;29;20496;-65
2022/02/14 05:23:17;;;;;;;21.67;10.50;;;;;;;;;;4932772;29;20063;-65
2022/02/14 05:25:47;;;;;;;20.45;9.93;;;;;;;;;;4932135;29;20420;-65
2022/02/14 05:28:18;;;;;;;19.08;9.60;;;;;;;;;;4941952;29;20055;-65
2022/02/14 05:30:48;;;;;;;18.80;9.65;;;;;;;;;;4941775;29;20060;-64
2022/02/14 05:33:18;;;;;;;18.40;9.90;;;;;;;;;;4884807;29;20067;-64
2022/02/14 05:35:49;;;;;;;19.92;10.23;;;;;;;;;;4932109;29;20544;-65
2022/02/14 05:38:20;;;;;;;19.67;10.63;;;;;;;;;;4932416;29;20090;-65
2022/02/14 05:40:50;;;;;;;18.55;9.68;;;;;;;;;;4931733;29;20051;-65
2022/02/14 05:43:20;;;;;;;20.88;10.13;;;;;;;;;;4928935;28;20061;-65
2022/02/14 05:45:50;;;;;;;19.05;10.40;;;;;;;;;;4916058;29;20393;-64
2022/02/14 05:48:26;;;;;;;23.58;10.38;;;;;;;;;;4900149;29;20055;-65
2022/02/14 05:50:56;;;;;;;19.30;10.00;;;;;;;;;;4931990;29;20059;-65
2022/02/14 05:53:27;;;;;;;18.75;10.32;;;;;;;;;;4932332;29;20064;-64
2022/02/14 05:55:57;;;;;;;20.75;10.13;;;;;;;;;;4931439;29;20060;-64
2022/02/14 05:58:27;;;;;;;21.25;11.65;;;;;;;;;;4942104;28;20059;-65
2022/02/14 06:00:57;;;;;;;20.40;11.23;;;;;;;;;;4935366;28;20083;-64
2022/02/14 06:03:28;;;;;;;22.67;11.73;;;;;;;;;;4919071;28;20423;-64
2022/02/14 06:05:58;;;;;;;20.98;12.35;;;;;;;;;;4951190;28;20047;-65
2022/02/14 06:08:29;;;;;;;20.05;10.85;;;;;;;;;;4950798;28;20058;-65
2022/02/14 06:10:59;;;;;;;26.33;12.25;;;;;;;;;;4934098;28;20055;-64
2022/02/14 06:13:30;;;;;;;22.52;12.20;;;;;;;;;;4918588;28;20420;-65
2022/02/14 06:16:01;;;;;;;28.05;14.18;;;;;;;;;;4951143;28;20055;-64
2022/02/14 06:18:31;;;;;;;25.38;13.75;;;;;;;;;;4918823;28;20059;-65
2022/02/14 06:21:01;;;;;;;24.45;13.55;;;;;;;;;;4950433;28;20058;-64
2022/02/14 06:23:32;;;;;;;26.30;12.18;;;;;;;;;;4942863;28;20605;-64
2022/02/14 06:26:03;;;;;;;22.60;12.18;;;;;;;;;;5011176;28;20057;-64
2022/02/14 06:28:38;;;;;;;23.40;11.93;;;;;;;;;;5011218;28;20050;-64
2022/02/14 06:31:09;;;;;;;20.92;12.07;;;;;;;;;;5010791;28;20057;-65
2022/02/14 06:33:44;;;;;;;19.77;11.23;;;;;;;;;;5011585;28;20038;-64
2022/02/14 06:36:14;;;;;;;23.58;11.52;;;;;;;;;;5011443;28;20058;-64
2022/02/14 06:38:45;;;;;;;24.35;11.73;;;;;;;;;;5010654;28;20061;-65
2022/02/14 06:41:15;;;;;;;23.10;10.85;;;;;;;;;;4953421;28;20062;-65
2022/02/14 06:43:46;;;;;;;22.02;10.65;;;;;;;;;;4969806;28;20470;-64
2022/02/14 06:46:16;;;;;;;21.35;11.43;;;;;;;;;;4911521;29;20436;-65
2022/02/14 06:48:48;;;;;;;23.70;11.48;;;;;;;;;;4912100;29;20064;-65
2022/02/14 06:51:18;;;;;;;23.88;10.82;;;;;;;;;;4912341;29;20056;-65
2022/02/14 06:53:48;;;;;;;21.17;10.93;;;;;;;;;;4911645;29;20056;-64
2022/02/14 06:56:19;;;;;;;21.88;11.35;;;;;;;;;;4892619;29;20064;-64
2022/02/14 06:58:51;;;;;;;21.85;11.70;;;;;;;;;;4846777;29;20072;-65
2022/02/14 07:01:22;;;;;;;20.75;11.30;;;;;;;;;;4892888;29;20052;-65
2022/02/14 07:03:52;;;;;;;20.23;11.25;;;;;;;;;;4893183;29;20060;-65
2022/02/14 07:06:23;;;;;;;22.95;11.52;;;;;;;;;;4893215;29;20528;-65
2022/02/14 07:08:53;;;;;;;18.50;11.27;;;;;;;;;;4892511;29;20087;-65
2022/02/14 07:11:25;;;;;;;22.98;11.55;;;;;;;;;;4892696;29;20060;-64
2022/02/14 07:13:55;;;;;;;23.83;12.75;;;;;;;;;;4893081;29;20056;-65
2022/02/14 07:16:26;;;;;;;22.92;11.70;;;;;;;;;;4892629;29;20118;-65
2022/02/14 07:18:56;;;;;;;24.35;11.50;;;;;;;;;;4893180;29;20067;-65
2022/02/14 07:21:26;;;;;;;19.77;11.13;;;;;;;;;;4911582;29;20508;-64
2022/02/14 07:23:56;;;;;;;26.95;11.50;;;;;;;;;;4930510;28;20059;-65
2022/02/14 07:26:26;;;;;;;22.35;11.48;;;;;;;;;;4933362;29;20055;-65
2022/02/14 07:28:57;;;;;;;23.38;11.32;;;;;;;;;;4949469;29;20055;-65
2022/02/14 07:31:27;;;;;;;23.85;11.07;;;;;;;;;;4949603;29;20051;-64
2022/02/14 07:33:57;;;;;;;23.48;10.90;;;;;;;;;;4970076;28;20069;-64
2022/02/14 07:36:28;;;;;;;20.40;11.30;;;;;;;;;;4988314;28;20058;-64
2022/02/14 07:38:58;;;;;;;21.67;11.50;;;;;;;;;;4955431;28;20063;-65
2022/02/14 07:41:29;;;;;;;21.45;11.40;;;;;;;;;;4988437;28;20067;-65
2022/02/14 07:44:03;;;;;;;21.60;11.35;;;;;;;;;;4968581;28;20062;-65
2022/02/14 07:46:33;;;;;;;22.52;11.40;;;;;;;;;;4968419;28;20058;-65
2022/02/14 07:49:03;;;;;;;21.08;11.05;;;;;;;;;;4968801;28;20063;-64
2022/02/14 07:51:36;;;;;;;21.42;11.93;;;;;;;;;;4969028;28;20055;-64
2022/02/14 07:54:07;;;;;;;22.90;11.35;;;;;;;;;;4920614;28;20063;-65
2022/02/14 07:56:37;;;;;;;22.55;11.77;;;;;;;;;;4978631;28;20128;-65
2022/02/14 07:59:08;;;;;;;21.63;11.25;;;;;;;;;;4988051;28;20058;-64
2022/02/14 08:01:40;;;;;;;21.48;10.65;;;;;;;;;;4955133;28;20072;-65
2022/02/14 08:04:15;;;;;;;23.83;11.52;;;;;;;;;;4939876;28;20062;-65
2022/02/14 08:06:45;;;;;;;21.10;11.52;;;;;;;;;;4988062;28;20054;-65
2022/02/14 08:09:17;;;;;;;22.98;11.70;;;;;;;;;;4987656;28;20063;-64
2022/02/14 08:11:49;;;;;;;20.90;11.40;;;;;;;;;;4988240;28;20055;-65
2022/02/14 08:14:23;;;;;;;24.05;11.85;;;;;;;;;;4988287;28;20078;-65
2022/02/14 08:16:55;;;;;;;24.08;11.77;;;;;;;;;;4987500;28;20158;-64
2022/02/14 08:19:26;;;;;;;21.95;12.32;;;;;;;;;;4988318;28;20050;-65
2022/02/14 08:21:56;;;;;;;24.55;11.18;;;;;;;;;;5001384;28;20054;-65
2022/02/14 08:24:27;;;;;;;23.02;11.40;;;;;;;;;;4971008;28;20480;-65
2022/02/14 08:26:57;;;;;;;24.15;11.90;;;;;;;;;;4987203;28;20062;-65
2022/02/14 08:29:27;;;;;;;24.88;11.65;;;;;;;;;;4987526;28;20057;-65
2022/02/14 08:31:58;;;;;;;20.27;11.18;;;;;;;;;;4971566;28;20061;-65
2022/02/14 08:34:30;;;;;;;20.83;10.73;;;;;;;;;;4987759;28;20054;-65
2022/02/14 08:37:00;;;;;;;19.83;11.30;;;;;;;;;;4989509;28;20066;-65
2022/02/14 08:39:31;;;;;;;24.10;10.75;;;;;;;;;;4991474;28;20054;-65
2022/02/14 08:42:01;;;;;;;22.08;10.82;;;;;;;;;;4991348;28;20058;-65
2022/02/14 08:44:32;;;;;;;23.38;11.07;;;;;;;;;;4990630;28;20054;-65
2022/02/14 08:47:02;;;;;;;22.85;11.07;;;;;;;;;;4991243;28;20050;-65
2022/02/14 08:49:35;;;;;;;20.42;11.23;;;;;;;;;;4991171;28;20411;-65
2022/02/14 08:52:05;;;;;;;;;;;;;;;;;;4958700;28;20058;-64
2022/02/14 08:54:35;;;;;;;23.30;11.55;;;;;;;;;;4991162;28;20286;-65
2022/02/14 08:57:06;;;;;;;25.33;11.63;;;;;;;;;;4991097;28;20050;-65
2022/02/14 08:59:39;;;;;;;24.23;12.57;;;;;;;;;;4974069;28;20066;-65
2022/02/14 09:02:09;;;;;;;20.85;11.95;;;;;;;;;;4995275;28;20061;-65
2022/02/14 09:04:40;;;;;;;26.88;12.32;;;;;;;;;;5012955;28;20080;-65
2022/02/14 09:07:10;;;;;;;26.17;11.80;;;;;;;;;;5012525;28;20054;-66
2022/02/14 09:09:40;;;;;;;24.00;12.13;;;;;;;;;;5012633;28;20056;-65
2022/02/14 09:12:10;;;;;;;22.95;12.68;;;;;;;;;;4962220;28;20684;-65
2022/02/14 09:14:41;;;;;;;26.30;12.38;;;;;;;;;;4977416;28;20077;-65
2022/02/14 09:17:12;;;;;;;21.95;11.77;;;;;;;;;;5012775;28;20061;-65
2022/02/14 09:19:43;;;;;;;20.92;11.57;;;;;;;;;;4978189;28;20077;-65
2022/02/14 09:25:09;;;;;;;21.23;11.55;;;;;;;;;;5012776;28;20402;-65
2022/02/14 09:27:40;;;;;;;25.73;12.07;;;;;;;;;;5012112;28;20048;-65
2022/02/14 09:30:11;;;;;;;26.20;11.40;;;;;;;;;;4977452;28;20088;-65
2022/02/14 09:32:41;;;;;;;19.15;10.70;;;;;;;;;;4974276;28;20063;-65
2022/02/14 09:35:12;;;;;;;26.48;11.63;;;;;;;;;;4990332;28;20046;-65
2022/02/14 09:37:42;;;;;;;25.75;11.73;;;;;;;;;;4989815;28;20058;-65
2022/02/14 09:40:13;;;;;;;23.75;11.55;;;;;;;;;;4990085;28;20051;-65
2022/02/14 09:43:04;;;;;;;19.85;10.20;;;;;;;;;;4989716;28;20055;-65
2022/02/14 09:45:35;;;;;;;;;;;;;;;;;;4990142;28;20062;-65
2022/02/14 09:48:08;;;;;;;23.92;10.63;;;;;;;;;;4957401;28;19921;-65
2022/02/14 09:50:40;;;;;;;20.67;10.68;;;;;;;;;;4989783;28;20066;-65
2022/02/14 09:53:14;;;;;;;21.83;10.73;;;;;;;;;;4941480;28;20046;-65
2022/02/14 09:55:47;;;;;;;21.63;11.82;;;;;;;;;;4990270;28;20086;-65
2022/02/14 09:58:17;;;;;;;;;;;;;;;;;;4989720;28;20106;-65
2022/02/14 10:00:49;;;;;;;29.27;12.15;;;;;;;;;;5005811;28;19922;-65
2022/02/14 10:03:24;;;;;;;23.15;11.95;;;;;;;;;;4974045;28;20054;-65
2022/02/14 10:05:57;;;;;;;23.95;11.65;;;;;;;;;;4989191;28;20061;-64
2022/02/14 10:08:33;;;;;;;25.60;11.65;;;;;;;;;;4983084;28;20065;-65
2022/02/14 10:11:18;;;;;;;29.70;12.45;;;;;;;;;;4986442;28;20058;-65
2022/02/14 10:13:51;;;;;;;23.40;11.00;;;;;;;;;;4973139;28;20074;-65
2022/02/14 10:16:21;;;;;;;;;;;;;;;;;;4957539;28;20054;-64
2022/02/14 10:18:52;;;;;;;20.98;11.05;;;;;;;;;;5009943;28;20025;-64
2022/02/14 10:21:32;;;;;;;21.00;11.38;;;;;;;;;;5011203;28;20042;-64
2022/02/14 10:24:13;;;;;;;25.77;11.80;;;;;;;;;;5011462;28;20061;-65
2022/02/14 10:26:46;;;;;;;25.70;12.35;;;;;;;;;;5011054;28;20480;-64
2022/02/14 10:29:20;;;;;;;22.05;11.60;;;;;;;;;;4976400;28;20069;-65
2022/02/14 10:31:55;;;;;;;25.02;11.55;;;;;;;;;;4989166;28;20058;-65
2022/02/14 10:34:40;;;;;;;28.80;12.20;;;;;;;;;;4989072;28;20073;-65
2022/02/14 10:37:13;;;;;;;21.23;11.38;;;;;;;;;;4988546;28;20093;-65
2022/02/14 10:39:45;;;;;;;24.55;11.73;;;;;;;;;;4989093;28;20054;-65
2022/02/14 10:42:20;;;;;;;21.80;11.85;;;;;;;;;;4989266;28;20062;-66
2022/02/14 10:45:10;;;;;;;28.02;12.55;;;;;;;;;;4968999;28;20051;-65
2022/02/14 10:47:43;;;;;;;22.63;11.80;;;;;;;;;;4969726;28;20065;-65
2022/02/14 10:50:23;;;;;;;23.00;11.57;;;;;;;;;;4968936;28;20058;-65
2022/02/14 10:52:59;;;;;;;22.80;12.13;;;;;;;;;;4969629;28;20415;-65
2022/02/14 10:55:33;;;;;;;23.75;12.25;;;;;;;;;;4969308;28;20415;-65
2022/02/14 10:58:03;;;;;;;20.85;11.55;;;;;;;;;;4969077;28;20055;-65
2022/02/14 11:00:39;;;;;;;21.08;10.63;;;;;;;;;;4968786;28;20062;-65
2022/02/14 11:03:11;;;;;;;22.50;10.77;;;;;;;;;;4968945;28;20053;-66
2022/02/14 11:05:43;;;;;;;20.42;11.02;;;;;;;;;;4968817;28;20399;-66
2022/02/14 11:08:16;;;;;;;21.70;12.38;;;;;;;;;;4946312;29;20060;-66
2022/02/14 11:10:52;;;;;;;25.23;11.82;;;;;;;;;;4949421;29;20553;-66
2022/02/14 11:13:32;;;;;;;20.17;11.10;;;;;;;;;;4919380;29;20073;-67
2022/02/14 11:16:03;;;;;;;23.30;11.32;;;;;;;;;;4949254;29;20059;-66
2022/02/14 11:18:40;;;;;;;19.13;11.13;;;;;;;;;;4916687;29;20055;-66
2022/02/14 11:21:10;;;;;;;21.13;10.95;;;;;;;;;;4934592;28;20075;-66
2022/02/14 11:24:11;;;;;;;20.30;10.95;;;;;;;;;;4949193;29;20435;-66
2022/02/14 11:26:54;;;;;;;21.13;10.45;;;;;;;;;;4949135;29;20062;-65
2022/02/14 11:29:37;;;;;;;17.92;9.43;;;;;;;;;;4948701;29;20059;-66
2022/02/14 11:32:27;;;;;;;19.02;10.82;;;;;;;;;;4949722;29;20055;-66
2022/02/14 11:35:07;;;;;;;17.48;10.32;;;;;;;;;;4948867;28;20051;-66
2022/02/14 11:37:54;;;;;;;19.17;10.43;;;;;;;;;;4948363;29;20550;-66
2022/02/14 11:40:33;;;;;;;20.00;10.48;;;;;;;;;;4923475;29;20055;-66
2022/02/14 11:43:06;;;;;;;;;;;;;;;;;;4895537;29;20205;-66
2022/02/14 11:45:38;;;;;;;19.55;10.30;;;;;;;;;;4911445;29;19923;-65
2022/02/14 11:48:27;;;;;;;;;;;;;;;;;;4872950;29;20060;-67
2022/02/14 11:51:09;;;;;;;19.63;9.98;;;;;;;;;;4898837;29;19924;-66
2022/02/14 11:53:44;;;;;;;20.55;10.48;;;;;;;;;;4875583;29;20527;-66
2022/02/14 11:56:21;;;;;;;21.40;10.73;;;;;;;;;;4868800;29;20057;-66
2022/02/14 11:59:10;;;;;;;19.73;10.95;;;;;;;;;;4873073;29;20061;-65
2022/02/14 12:01:49;;;;;;;18.73;10.98;;;;;;;;;;4875541;29;20575;-65
2022/02/14 12:04:52;;;;;;;17.70;9.68;;;;;;;;;;4891487;29;20056;-66
2022/02/14 12:07:26;;;;;;;18.60;10.50;;;;;;;;;;4870926;29;20522;-65
2022/02/14 12:10:03;;;;;;;19.90;10.07;;;;;;;;;;4843111;29;20167;-65
2022/02/14 12:12:39;;;;;;;20.58;9.93;;;;;;;;;;4858035;29;20057;-67
2022/02/14 12:21:23;;;;;;;18.38;9.30;;;;;;;;;;4866006;29;20054;-65
2022/02/14 12:24:23;;;;;;;34.25;17.15;;;;;;;;;;4866171;29;20061;-66
2022/02/14 12:27:00;;;;;;;19.88;10.45;;;;;;;;;;4869907;29;20057;-64
2022/02/14 12:29:41;;;;;;;19.38;12.27;;;;;;;;;;4874893;29;20049;-66
2022/02/14 12:32:17;;;;;;;19.35;9.68;;;;;;;;;;4805201;29;20071;-65
2022/02/14 12:34:51;;;;;;;17.67;9.77;;;;;;;;;;4857167;29;20063;-65
2022/02/14 12:37:22;;;;;;;15.18;9.20;;;;;;;;;;4894554;29;20067;-65
2022/02/14 12:39:53;;;;;;;15.07;9.23;;;;;;;;;;4909116;29;20063;-64
2022/02/14 12:42:25;;;;;;;14.55;8.48;;;;;;;;;;4933143;29;20055;-67
2022/02/14 12:44:57;;;;;;;12.20;7.63;;;;;;;;;;4880685;29;20057;-66
2022/02/14 12:47:29;;;;;;;13.38;8.45;;;;;;;;;;4893887;29;20059;-66
2022/02/14 12:50:17;;;;;;;16.30;10.40;;;;;;;;;;4898476;29;20060;-66
2022/02/14 12:52:48;;;;;;;13.65;7.90;;;;;;;;;;4942682;28;20066;-67
2022/02/14 12:55:26;;;;;;;13.40;8.23;;;;;;;;;;4971413;28;20050;-66
2022/02/14 12:58:00;;;;;;;12.68;7.32;;;;;;;;;;4971797;28;20551;-68
2022/02/14 13:00:36;;;;;;;11.25;6.45;;;;;;;;;;4924835;28;20058;-66
2022/02/14 13:03:14;;;;;;;11.63;6.32;;;;;;;;;;4956547;28;20427;-67
2022/02/14 13:05:52;;;;;;;8.52;4.93;;;;;;;;;;4914622;29;20063;-68
2022/02/14 13:08:29;;;;;;;9.63;5.50;;;;;;;;;;4898758;29;20059;-70
2022/02/14 13:11:00;;;;;;;10.32;5.88;;;;;;;;;;4883405;29;20067;-70
2022/02/14 13:13:41;;;;;;;7.78;4.80;;;;;;;;;;4910490;29;20465;-69
2022/02/14 13:16:12;;;;;;;6.30;3.53;;;;;;;;;;4918555;29;20067;-65
2022/02/14 13:18:49;;;;;;;8.93;4.47;;;;;;;;;;4933566;29;20043;-66
2022/02/14 13:21:20;;;;;;;7.30;5.50;;;;;;;;;;4917974;29;20052;-65
2022/02/14 13:23:56;;;;;;;7.47;4.75;;;;;;;;;;4952082;28;20066;-67
2022/02/14 13:26:27;;;;;;;8.25;4.95;;;;;;;;;;4920995;29;20058;-67
2022/02/14 13:28:57;;;;;;;18.15;11.70;;;;;;;;;;4952768;28;20051;-66
2022/02/14 13:31:28;;;;;;;9.68;5.00;;;;;;;;;;4917532;29;20051;-67
2022/02/14 13:34:02;;;;;;;9.00;5.07;;;;;;;;;;4933348;29;20063;-68
2022/02/14 13:36:34;;;;;;;9.95;5.63;;;;;;;;;;4933223;29;20063;-68
2022/02/14 13:39:06;;;;;;;11.98;6.93;;;;;;;;;;4917367;29;20619;-69
2022/02/14 13:41:37;;;;;;;10.23;6.43;;;;;;;;;;4933196;29;20048;-67
2022/02/14 13:44:12;;;;;;;11.13;6.25;;;;;;;;;;4964892;28;20055;-67
2022/02/14 13:46:42;;;;;;;8.98;4.70;;;;;;;;;;4987149;28;20054;-67
2022/02/14 13:49:35;;;;;;;7.00;4.25;;;;;;;;;;4961988;28;20058;-67
2022/02/14 13:52:06;;;;;;;7.35;3.63;;;;;;;;;;4994525;28;20049;-67
2022/02/14 13:54:37;;;;;;;7.78;3.85;;;;;;;;;;5010846;28;20046;-67
2022/02/14 13:57:06;;;;;;;5.47;3.13;;;;;;;;;;5010269;28;20057;-67
2022/02/14 13:59:39;;;;;;;6.95;3.72;;;;;;;;;;5010495;28;20045;-68
2022/02/14 14:02:14;;;;;;;8.30;4.13;;;;;;;;;;5010492;28;20413;-67
2022/02/14 14:05:19;;;;;;;11.10;5.07;;;;;;;;;;4951980;29;20393;-66
2022/02/14 14:07:49;;;;;;;6.50;4.05;;;;;;;;;;4936159;29;20063;-66
2022/02/14 14:10:20;;;;;;;6.80;3.60;;;;;;;;;;4955484;28;20065;-66
2022/02/14 14:12:53;;;;;;;8.95;5.35;;;;;;;;;;4971152;28;20046;-67
2022/02/14 14:15:24;;;;;;;8.55;3.70;;;;;;;;;;4971148;28;20090;-67
2022/02/14 14:17:54;;;;;;;5.90;3.20;;;;;;;;;;4923313;28;20051;-67
2022/02/14 14:20:25;;;;;;;10.07;3.90;;;;;;;;;;4971069;28;20054;-67
2022/02/14 14:22:55;;;;;;;6.72;3.20;;;;;;;;;;4970971;28;20063;-66
2022/02/14 14:25:28;;;;;;;5.47;3.03;;;;;;;;;;4955345;28;20042;-66
2022/02/14 14:27:59;;;;;;;5.35;2.83;;;;;;;;;;4935127;29;20053;-67
2022/02/14 14:30:29;;;;;;;5.82;3.67;;;;;;;;;;4916157;29;20051;-67
2022/02/14 14:33:00;;;;;;;6.68;3.13;;;;;;;;;;4909016;29;20057;-67
2022/02/14 14:35:31;;;;;;;5.25;2.75;;;;;;;;;;4893639;29;20052;-67
2022/02/14 14:38:02;;;;;;;5.28;3.00;;;;;;;;;;4894392;29;20061;-67
2022/02/14 14:40:32;;;;;;;6.53;2.95;;;;;;;;;;4894152;29;20433;-67
2022/02/14 14:43:03;;;;;;;10.73;7.85;;;;;;;;;;4925296;29;20067;-66
2022/02/14 14:45:33;;;;;;;6.13;3.38;;;;;;;;;;4931982;29;20560;-67
2022/02/14 14:48:04;;;;;;;5.18;2.65;;;;;;;;;;4932238;29;20087;-68
2022/02/14 14:50:34;;;;;;;5.22;2.63;;;;;;;;;;4916736;29;20067;-67
2022/02/14 14:53:04;;;;;;;5.55;3.10;;;;;;;;;;4916354;29;20064;-68
2022/02/14 14:55:36;;;;;;;5.53;3.00;;;;;;;;;;4931862;29;20559;-67
2022/02/14 14:58:06;;;;;;;6.40;3.17;;;;;;;;;;4931910;29;20051;-67
2022/02/14 15:00:36;;;;;;;4.85;2.85;;;;;;;;;;4931832;29;20055;-72
2022/02/14 15:03:08;;;;;;;5.45;2.83;;;;;;;;;;4931807;29;20416;-69
2022/02/14 15:05:39;;;;;;;5.80;3.05;;;;;;;;;;4931739;29;20067;-72
2022/02/14 15:08:09;;;;;;;5.70;2.97;;;;;;;;;;4951188;28;20066;-69